createdAt,value
2017-01-30T00:00:33.170Z,25.6
2017-01-30T00:01:41.255Z,25.6
2017-01-30T00:02:49.350Z,25.6
2017-01-30T00:03:57.442Z,25.5
2017-01-30T00:05:05.531Z,25.5
2017-01-30T00:06:13.618Z,25.6
2017-01-30T00:07:21.709Z,25.6
2017-01-30T00:08:29.799Z,25.5
2017-01-30T00:09:37.887Z,25.5
2017-01-30T00:10:45.979Z,25.6
2017-01-30T00:11:54.071Z,25.6
2017-01-30T00:13:02.157Z,25.6
2017-01-30T00:14:10.247Z,25.6
2017-01-30T00:15:18.342Z,25.6
2017-01-30T00:16:26.442Z,25.7
2017-01-30T00:17:34.530Z,25.7
2017-01-30T00:18:42.621Z,25.6
2017-01-30T00:19:50.731Z,25.7
2017-01-30T00:20:58.845Z,25.7
2017-01-30T00:22:06.908Z,25.7
2017-01-30T00:23:15.001Z,25.7
2017-01-30T00:24:23.093Z,25.7
2017-01-30T00:25:31.183Z,25.7
2017-01-30T00:26:39.273Z,25.7
2017-01-30T00:27:47.372Z,25.7
2017-01-30T00:28:55.459Z,25.7
2017-01-30T00:30:03.552Z,25.7
2017-01-30T00:31:11.635Z,25.8
2017-01-30T00:32:19.726Z,25.7
2017-01-30T00:33:27.819Z,25.7
2017-01-30T00:34:35.918Z,25.7
2017-01-30T00:35:44.004Z,25.7
2017-01-30T00:36:52.094Z,25.9
2017-01-30T00:38:00.185Z,25.8
2017-01-30T00:39:08.279Z,25.8
2017-01-30T00:40:16.374Z,25.8
2017-01-30T00:41:24.460Z,25.7
2017-01-30T00:42:32.553Z,25.9
2017-01-30T00:43:40.645Z,25.8
2017-01-30T00:44:48.741Z,25.9
2017-01-30T00:45:56.828Z,25.8
2017-01-30T00:47:04.921Z,25.8
2017-01-30T00:48:13.007Z,25.9
2017-01-30T00:49:21.099Z,25.9
2017-01-30T00:50:29.195Z,25.9
2017-01-30T00:51:37.288Z,25.9
2017-01-30T00:52:45.376Z,25.9
2017-01-30T00:53:53.468Z,25.8
2017-01-30T00:55:01.565Z,25.9
2017-01-30T00:56:09.655Z,25.9
2017-01-30T00:57:17.743Z,25.9
2017-01-30T00:58:25.836Z,25.9
2017-01-30T00:59:33.930Z,25.9
2017-01-30T01:00:42.016Z,26.0
2017-01-30T01:01:50.107Z,26.0
2017-01-30T01:02:58.204Z,25.9
2017-01-30T01:04:06.294Z,25.9
2017-01-30T01:05:14.379Z,25.9
2017-01-30T01:06:22.477Z,26.0
2017-01-30T01:07:30.646Z,26.0
2017-01-30T01:08:38.664Z,26.0
2017-01-30T01:09:46.749Z,26.0
2017-01-30T01:10:54.854Z,25.9
2017-01-30T01:12:02.939Z,26.0
2017-01-30T01:13:11.033Z,26.0
2017-01-30T01:14:19.130Z,26.0
2017-01-30T01:15:27.219Z,25.9
2017-01-30T01:16:35.308Z,26.0
2017-01-30T01:17:43.406Z,26.0
2017-01-30T01:18:51.502Z,25.9
2017-01-30T01:19:59.592Z,26.0
2017-01-30T01:21:07.677Z,25.9
2017-01-30T01:22:15.775Z,25.9
2017-01-30T01:23:23.868Z,26.0
2017-01-30T01:24:31.999Z,25.9
2017-01-30T01:25:40.053Z,26.0
2017-01-30T01:26:48.145Z,25.9
2017-01-30T01:27:56.236Z,26.0
2017-01-30T01:29:04.324Z,26.0
2017-01-30T01:30:12.421Z,26.0
2017-01-30T01:31:20.513Z,25.9
2017-01-30T01:32:28.601Z,26.0
2017-01-30T01:33:36.693Z,26.0
2017-01-30T01:34:44.789Z,26.0
2017-01-30T01:35:52.880Z,26.0
2017-01-30T01:37:00.965Z,25.9
2017-01-30T01:38:09.065Z,25.9
2017-01-30T01:39:17.152Z,26.0
2017-01-30T01:40:25.236Z,26.0
2017-01-30T01:41:33.329Z,25.9
2017-01-30T01:42:41.424Z,25.9
2017-01-30T01:43:49.516Z,25.9
2017-01-30T01:44:57.602Z,26.0
2017-01-30T01:46:05.698Z,25.9
2017-01-30T01:47:13.794Z,26.0
2017-01-30T01:48:21.882Z,26.0
2017-01-30T01:49:29.976Z,25.9
2017-01-30T01:50:38.075Z,26.0
2017-01-30T01:51:46.160Z,26.0
2017-01-30T01:52:54.246Z,25.9
2017-01-30T01:54:02.341Z,25.9
2017-01-30T01:55:10.432Z,26.0
2017-01-30T01:56:18.521Z,25.9
2017-01-30T01:57:26.611Z,26.0
2017-01-30T01:58:34.707Z,25.9
2017-01-30T01:59:42.795Z,25.9
2017-01-30T02:00:50.897Z,26.0
2017-01-30T02:01:58.986Z,26.0
2017-01-30T02:03:07.075Z,25.9
2017-01-30T02:04:15.164Z,25.9
2017-01-30T02:05:23.258Z,25.9
2017-01-30T02:06:31.347Z,25.9
2017-01-30T02:07:39.443Z,25.9
2017-01-30T02:08:47.526Z,25.9
2017-01-30T02:09:55.620Z,25.9
2017-01-30T02:11:03.716Z,25.9
2017-01-30T02:12:11.803Z,26.0
2017-01-30T02:13:19.898Z,26.0
2017-01-30T02:14:27.988Z,25.9
2017-01-30T02:15:36.074Z,26.0
2017-01-30T02:16:44.163Z,25.9
2017-01-30T02:17:52.261Z,25.9
2017-01-30T02:19:00.363Z,25.9
2017-01-30T02:20:08.450Z,26.0
2017-01-30T02:21:16.541Z,26.1
2017-01-30T02:22:24.638Z,26.0
2017-01-30T02:23:32.727Z,26.0
2017-01-30T02:24:40.817Z,26.0
2017-01-30T02:25:48.910Z,26.1
2017-01-30T02:26:57.002Z,26.0
2017-01-30T02:28:05.095Z,26.0
2017-01-30T02:29:13.183Z,26.0
2017-01-30T02:30:21.273Z,26.0
2017-01-30T02:31:29.364Z,26.0
2017-01-30T02:32:37.465Z,26.0
2017-01-30T02:33:45.553Z,26.1
2017-01-30T02:34:53.642Z,26.1
2017-01-30T02:36:01.733Z,26.0
2017-01-30T02:37:09.831Z,26.0
2017-01-30T02:38:17.919Z,26.1
2017-01-30T02:39:26.007Z,26.0
2017-01-30T02:40:34.106Z,26.1
2017-01-30T02:41:42.197Z,26.0
2017-01-30T02:42:50.289Z,26.0
2017-01-30T02:43:58.375Z,26.1
2017-01-30T02:45:06.472Z,26.0
2017-01-30T02:46:14.578Z,26.1
2017-01-30T02:47:22.662Z,26.1
2017-01-30T02:48:30.758Z,26.1
2017-01-30T02:49:38.887Z,26.1
2017-01-30T02:50:46.937Z,26.1
2017-01-30T02:51:55.037Z,26.1
2017-01-30T02:53:03.126Z,26.1
2017-01-30T02:54:11.217Z,26.1
2017-01-30T02:55:19.310Z,26.1
2017-01-30T02:56:27.400Z,26.1
2017-01-30T02:57:35.490Z,26.1
2017-01-30T02:58:43.588Z,26.1
2017-01-30T02:59:51.679Z,26.1
2017-01-30T03:00:59.771Z,26.1
2017-01-30T03:02:07.862Z,26.1
2017-01-30T03:03:15.949Z,26.1
2017-01-30T03:04:24.044Z,26.1
2017-01-30T03:05:32.137Z,26.0
2017-01-30T03:06:40.227Z,26.1
2017-01-30T03:07:48.318Z,26.2
2017-01-30T03:08:56.410Z,26.1
2017-01-30T03:10:04.505Z,26.1
2017-01-30T03:11:12.590Z,26.2
2017-01-30T03:12:20.684Z,26.1
2017-01-30T03:13:28.788Z,26.1
2017-01-30T03:14:36.871Z,26.0
2017-01-30T03:15:44.964Z,26.0
2017-01-30T03:16:53.053Z,26.0
2017-01-30T03:18:01.148Z,26.0
2017-01-30T03:19:09.247Z,26.1
2017-01-30T03:20:17.337Z,26.1
2017-01-30T03:21:25.427Z,26.1
2017-01-30T03:22:33.517Z,26.0
2017-01-30T03:23:41.609Z,26.1
2017-01-30T03:24:49.700Z,26.0
2017-01-30T03:25:57.790Z,26.1
2017-01-30T03:27:05.881Z,26.1
2017-01-30T03:28:13.979Z,26.1
2017-01-30T03:29:22.071Z,26.1
2017-01-30T03:30:30.163Z,26.0
2017-01-30T03:31:38.248Z,26.1
2017-01-30T03:32:46.341Z,26.0
2017-01-30T03:33:54.434Z,26.0
2017-01-30T03:35:02.519Z,26.0
2017-01-30T03:36:10.695Z,25.9
2017-01-30T03:37:18.710Z,25.9
2017-01-30T03:38:26.797Z,25.9
2017-01-30T03:39:34.887Z,26.0
2017-01-30T03:40:42.982Z,26.0
2017-01-30T03:41:51.076Z,25.9
2017-01-30T03:42:59.162Z,25.9
2017-01-30T03:44:07.258Z,25.9
2017-01-30T03:45:15.347Z,26.0
2017-01-30T03:46:23.436Z,25.9
2017-01-30T03:47:31.522Z,25.9
2017-01-30T03:48:39.615Z,25.9
2017-01-30T03:49:47.711Z,25.9
2017-01-30T03:50:55.802Z,25.9
2017-01-30T03:52:03.899Z,25.9
2017-01-30T03:53:12.011Z,25.8
2017-01-30T03:54:20.077Z,25.9
2017-01-30T03:55:28.164Z,25.8
2017-01-30T03:56:36.255Z,25.9
2017-01-30T03:57:44.353Z,25.9
2017-01-30T03:58:52.441Z,25.9
2017-01-30T04:00:00.537Z,25.8
2017-01-30T04:01:08.627Z,25.8
2017-01-30T04:02:16.720Z,25.8
2017-01-30T04:03:24.810Z,25.7
2017-01-30T04:04:32.901Z,25.8
2017-01-30T04:05:40.990Z,25.8
2017-01-30T04:06:49.078Z,25.7
2017-01-30T04:07:57.171Z,25.7
2017-01-30T04:09:05.264Z,25.7
2017-01-30T04:10:13.354Z,25.7
2017-01-30T04:11:21.452Z,25.7
2017-01-30T04:12:29.542Z,25.7
2017-01-30T04:13:37.628Z,25.6
2017-01-30T04:14:45.719Z,25.6
2017-01-30T04:15:53.814Z,25.6
2017-01-30T04:17:01.911Z,25.6
2017-01-30T04:18:09.999Z,25.6
2017-01-30T04:19:18.103Z,25.6
2017-01-30T04:20:26.192Z,25.6
2017-01-30T04:21:34.285Z,25.6
2017-01-30T04:22:42.371Z,25.6
2017-01-30T04:23:50.463Z,25.6
2017-01-30T04:24:58.554Z,25.6
2017-01-30T04:26:06.641Z,25.5
2017-01-30T04:27:14.734Z,25.5
2017-01-30T04:28:22.825Z,25.5
2017-01-30T04:29:30.914Z,25.4
2017-01-30T04:30:39.000Z,25.5
2017-01-30T04:31:47.100Z,25.4
2017-01-30T04:32:55.191Z,25.4
2017-01-30T04:34:03.278Z,25.4
2017-01-30T04:35:11.384Z,25.4
2017-01-30T04:36:19.472Z,25.4
2017-01-30T04:37:27.562Z,25.3
2017-01-30T04:38:35.656Z,25.4
2017-01-30T04:39:43.749Z,25.3
2017-01-30T04:40:51.841Z,25.3
2017-01-30T04:41:59.926Z,25.4
2017-01-30T04:43:08.022Z,25.3
2017-01-30T04:44:16.108Z,25.3
2017-01-30T04:45:24.198Z,25.3
2017-01-30T04:46:32.284Z,25.2
2017-01-30T04:47:40.380Z,25.3
2017-01-30T04:48:48.471Z,25.3
2017-01-30T04:49:56.558Z,25.2
2017-01-30T04:51:04.652Z,25.1
2017-01-30T04:52:12.738Z,25.2
2017-01-30T04:53:20.831Z,25.1
2017-01-30T04:54:28.922Z,25.1
2017-01-30T04:55:37.016Z,25.2
2017-01-30T04:56:45.110Z,25.1
2017-01-30T04:57:53.197Z,25.1
2017-01-30T04:59:01.294Z,25.1
2017-01-30T05:00:09.380Z,25.2
2017-01-30T05:01:17.464Z,25.1
2017-01-30T05:02:25.556Z,25.1
2017-01-30T05:03:33.658Z,25.1
2017-01-30T05:04:41.745Z,25.1
2017-01-30T05:05:49.824Z,25.1
2017-01-30T05:06:57.918Z,25.1
2017-01-30T05:08:06.007Z,25.1
2017-01-30T05:09:14.101Z,25.2
2017-01-30T05:10:22.189Z,25.1
2017-01-30T05:11:30.280Z,25.2
2017-01-30T05:12:38.369Z,25.1
2017-01-30T05:13:46.461Z,25.1
2017-01-30T05:14:54.555Z,25.1
2017-01-30T05:16:02.645Z,25.1
2017-01-30T05:17:10.729Z,25.1
2017-01-30T05:18:18.831Z,25.1
2017-01-30T05:19:26.913Z,25.1
2017-01-30T05:20:35.008Z,25.1
2017-01-30T05:21:43.095Z,25.2
2017-01-30T05:22:51.188Z,25.1
2017-01-30T05:23:59.278Z,25.1
2017-01-30T05:25:07.371Z,25.2
2017-01-30T05:26:15.467Z,25.2
2017-01-30T05:27:23.558Z,25.1
2017-01-30T05:28:31.653Z,25.1
2017-01-30T05:29:39.746Z,25.1
2017-01-30T05:30:47.837Z,25.1
2017-01-30T05:31:55.928Z,25.2
2017-01-30T05:33:04.021Z,25.1
2017-01-30T05:34:12.110Z,25.1
2017-01-30T05:35:20.200Z,25.1
2017-01-30T05:36:28.288Z,25.1
2017-01-30T05:37:36.378Z,25.1
2017-01-30T05:38:44.470Z,25.1
2017-01-30T05:39:52.561Z,25.2
2017-01-30T05:41:00.645Z,25.2
2017-01-30T05:42:08.740Z,25.2
2017-01-30T05:43:16.833Z,25.2
2017-01-30T05:44:24.932Z,25.1
2017-01-30T05:45:33.019Z,25.2
2017-01-30T05:46:41.113Z,25.2
2017-01-30T05:47:49.214Z,25.1
2017-01-30T05:48:57.290Z,25.2
2017-01-30T05:50:05.382Z,25.1
2017-01-30T05:51:13.471Z,25.2
2017-01-30T05:52:21.560Z,25.2
2017-01-30T05:53:29.652Z,25.1
2017-01-30T05:54:37.745Z,25.2
2017-01-30T05:55:45.839Z,25.2
2017-01-30T05:56:53.929Z,25.1
2017-01-30T05:58:02.021Z,25.2
2017-01-30T05:59:10.111Z,25.1
2017-01-30T06:00:18.203Z,25.1
2017-01-30T06:01:26.293Z,25.2
2017-01-30T06:02:34.388Z,25.1
2017-01-30T06:03:42.481Z,25.1
2017-01-30T06:04:50.613Z,25.2
2017-01-30T06:05:58.661Z,25.1
2017-01-30T06:07:06.757Z,25.2
2017-01-30T06:08:14.850Z,25.2
2017-01-30T06:09:22.937Z,25.2
2017-01-30T06:10:31.029Z,25.2
2017-01-30T06:11:39.126Z,25.2
2017-01-30T06:12:47.211Z,25.3
2017-01-30T06:13:55.307Z,25.2
2017-01-30T06:15:03.394Z,25.2
2017-01-30T06:16:11.484Z,25.2
2017-01-30T06:17:19.576Z,25.3
2017-01-30T06:18:27.674Z,25.3
2017-01-30T06:19:35.763Z,25.3
2017-01-30T06:20:43.850Z,25.2
2017-01-30T06:21:51.943Z,25.2
2017-01-30T06:23:00.037Z,25.2
2017-01-30T06:24:08.123Z,25.3
2017-01-30T06:25:16.214Z,25.3
2017-01-30T06:26:24.313Z,25.2
2017-01-30T06:27:32.399Z,25.2
2017-01-30T06:28:40.489Z,25.2
2017-01-30T06:29:48.581Z,25.2
2017-01-30T06:30:56.673Z,25.3
2017-01-30T06:32:04.763Z,25.3
2017-01-30T06:33:12.851Z,25.3
2017-01-30T06:34:20.948Z,25.2
2017-01-30T06:35:29.033Z,25.2
2017-01-30T06:36:37.122Z,25.3
2017-01-30T06:37:45.215Z,25.3
2017-01-30T06:38:53.304Z,25.3
2017-01-30T06:40:01.390Z,25.3
2017-01-30T06:41:09.487Z,25.3
2017-01-30T06:42:17.576Z,25.3
2017-01-30T06:43:25.668Z,25.3
2017-01-30T06:44:33.755Z,25.3
2017-01-30T06:45:41.850Z,25.3
2017-01-30T06:46:49.937Z,25.4
2017-01-30T06:47:58.025Z,25.3
2017-01-30T06:49:06.119Z,25.3
2017-01-30T06:50:14.213Z,25.3
2017-01-30T06:51:22.298Z,25.4
2017-01-30T06:52:30.390Z,25.4
2017-01-30T06:53:38.482Z,25.3
2017-01-30T06:54:46.581Z,25.4
2017-01-30T06:55:54.667Z,25.4
2017-01-30T06:57:02.755Z,25.4
2017-01-30T06:58:10.846Z,25.4
2017-01-30T06:59:18.944Z,25.4
2017-01-30T07:00:27.030Z,25.4
2017-01-30T07:01:35.123Z,25.4
2017-01-30T07:02:43.211Z,25.4
2017-01-30T07:03:51.303Z,25.3
2017-01-30T07:04:59.413Z,25.4
2017-01-30T07:06:07.499Z,25.3
2017-01-30T07:07:15.607Z,25.4
2017-01-30T07:08:23.688Z,25.4
2017-01-30T07:09:31.787Z,25.4
2017-01-30T07:10:39.876Z,25.4
2017-01-30T07:11:47.964Z,25.3
2017-01-30T07:12:56.067Z,25.5
2017-01-30T07:14:04.149Z,25.4
2017-01-30T07:15:12.243Z,25.4
2017-01-30T07:16:20.330Z,25.3
2017-01-30T07:17:28.430Z,25.4
2017-01-30T07:18:36.522Z,25.3
2017-01-30T07:19:44.610Z,25.4
2017-01-30T07:20:52.703Z,25.4
2017-01-30T07:22:00.802Z,25.4
2017-01-30T07:23:08.888Z,25.4
2017-01-30T07:24:16.976Z,25.4
2017-01-30T07:25:25.068Z,25.4
2017-01-30T07:26:33.162Z,25.4
2017-01-30T07:27:41.257Z,25.4
2017-01-30T07:28:49.356Z,25.4
2017-01-30T07:29:57.535Z,25.4
2017-01-30T07:31:05.536Z,25.4
2017-01-30T07:32:13.622Z,25.5
2017-01-30T07:33:21.713Z,25.5
2017-01-30T07:34:29.808Z,25.5
2017-01-30T07:35:37.898Z,25.5
2017-01-30T07:36:45.991Z,25.5
2017-01-30T07:37:54.086Z,25.4
2017-01-30T07:39:02.180Z,25.5
2017-01-30T07:40:10.273Z,25.5
2017-01-30T07:41:18.362Z,25.4
2017-01-30T07:42:26.454Z,25.5
2017-01-30T07:43:34.539Z,25.5
2017-01-30T07:44:42.632Z,25.5
2017-01-30T07:45:50.723Z,25.5
2017-01-30T07:46:58.817Z,25.5
2017-01-30T07:48:07.563Z,25.5
2017-01-30T07:49:15.004Z,25.5
2017-01-30T07:50:23.086Z,25.5
2017-01-30T07:51:31.209Z,25.5
2017-01-30T07:52:39.274Z,25.5
2017-01-30T07:53:47.370Z,25.5
2017-01-30T07:54:55.461Z,25.5
2017-01-30T07:56:03.549Z,25.5
2017-01-30T07:57:11.986Z,25.5
2017-01-30T07:58:19.739Z,25.5
2017-01-30T07:59:27.888Z,25.5
2017-01-30T08:00:35.918Z,25.5
2017-01-30T08:01:44.017Z,25.4
2017-01-30T08:02:52.104Z,25.5
2017-01-30T08:04:00.200Z,25.5
2017-01-30T08:05:08.293Z,25.6
2017-01-30T08:06:16.383Z,25.6
2017-01-30T08:07:24.471Z,25.6
2017-01-30T08:08:32.565Z,25.6
2017-01-30T08:09:40.653Z,25.6
2017-01-30T08:10:48.744Z,25.6
2017-01-30T08:11:56.833Z,25.6
2017-01-30T08:13:04.934Z,25.6
2017-01-30T08:14:13.034Z,25.6
2017-01-30T08:15:21.111Z,25.5
2017-01-30T08:16:29.285Z,25.6
2017-01-30T08:17:37.302Z,25.6
2017-01-30T08:18:45.629Z,25.6
2017-01-30T08:19:53.487Z,25.6
2017-01-30T08:21:01.580Z,25.6
2017-01-30T08:22:09.669Z,25.6
2017-01-30T08:23:17.757Z,25.6
2017-01-30T08:24:25.851Z,25.6
2017-01-30T08:25:33.941Z,25.6
2017-01-30T08:26:42.031Z,25.6
2017-01-30T08:27:50.129Z,25.6
2017-01-30T08:28:58.220Z,25.6
2017-01-30T08:30:06.302Z,25.6
2017-01-30T08:31:14.393Z,25.6
2017-01-30T08:32:22.491Z,25.7
2017-01-30T08:33:30.704Z,25.6
2017-01-30T08:34:38.675Z,25.6
2017-01-30T08:35:46.765Z,25.7
2017-01-30T08:36:54.858Z,25.6
2017-01-30T08:38:02.948Z,25.6
2017-01-30T08:39:11.035Z,25.7
2017-01-30T08:40:19.129Z,25.7
2017-01-30T08:41:27.222Z,25.7
2017-01-30T08:42:35.308Z,25.7
2017-01-30T08:43:43.403Z,25.7
2017-01-30T08:44:51.494Z,25.7
2017-01-30T08:45:59.585Z,25.8
2017-01-30T08:47:07.671Z,25.7
2017-01-30T08:48:15.791Z,25.7
2017-01-30T08:49:23.864Z,25.7
2017-01-30T08:50:31.959Z,25.8
2017-01-30T08:51:40.051Z,25.7
2017-01-30T08:52:48.143Z,25.7
2017-01-30T08:53:56.228Z,25.8
2017-01-30T08:55:04.853Z,25.7
2017-01-30T08:56:12.416Z,25.7
2017-01-30T08:57:20.506Z,25.7
2017-01-30T08:58:28.591Z,25.7
2017-01-30T08:59:36.688Z,25.7
2017-01-30T09:00:44.779Z,25.7
2017-01-30T09:01:52.870Z,25.7
2017-01-30T09:03:00.956Z,25.8
2017-01-30T09:04:09.050Z,25.7
2017-01-30T09:05:17.140Z,25.8
2017-01-30T09:06:25.231Z,25.7
2017-01-30T09:07:33.325Z,25.7
2017-01-30T09:08:41.413Z,25.8
2017-01-30T09:09:49.505Z,25.8
2017-01-30T09:10:57.599Z,25.9
2017-01-30T09:12:06.258Z,25.8
2017-01-30T09:13:13.816Z,25.7
2017-01-30T09:14:21.882Z,25.8
2017-01-30T09:15:30.002Z,25.8
2017-01-30T09:16:38.067Z,25.8
2017-01-30T09:17:46.152Z,25.7
2017-01-30T09:18:54.246Z,25.8
2017-01-30T09:20:02.333Z,25.8
2017-01-30T09:21:10.427Z,25.8
2017-01-30T09:22:18.517Z,25.8
2017-01-30T09:23:26.608Z,25.7
2017-01-30T09:24:34.699Z,25.9
2017-01-30T09:25:42.784Z,25.7
2017-01-30T09:26:50.878Z,25.9
2017-01-30T09:27:58.969Z,25.8
2017-01-30T09:29:07.058Z,25.7
2017-01-30T09:30:15.238Z,25.8
2017-01-30T09:31:23.235Z,25.9
2017-01-30T09:32:31.328Z,25.8
2017-01-30T09:33:39.430Z,25.7
2017-01-30T09:34:47.521Z,25.7
2017-01-30T09:35:55.613Z,25.8
2017-01-30T09:37:03.707Z,25.7
2017-01-30T09:38:11.795Z,25.8
2017-01-30T09:39:19.892Z,25.8
2017-01-30T09:40:27.984Z,25.8
2017-01-30T09:41:36.563Z,25.7
2017-01-30T09:42:44.164Z,25.8
2017-01-30T09:43:52.261Z,25.9
2017-01-30T09:45:00.353Z,25.8
2017-01-30T09:46:08.672Z,25.8
2017-01-30T09:47:16.539Z,25.8
2017-01-30T09:48:24.625Z,25.7
2017-01-30T09:49:33.018Z,25.8
2017-01-30T09:50:40.999Z,25.7
2017-01-30T09:51:48.902Z,25.8
2017-01-30T09:52:56.989Z,25.7
2017-01-30T09:54:05.081Z,25.7
2017-01-30T09:55:13.184Z,25.7
2017-01-30T09:56:21.267Z,25.8
2017-01-30T09:57:29.351Z,25.8
2017-01-30T09:58:37.446Z,25.8
2017-01-30T09:59:45.542Z,25.8
2017-01-30T10:00:53.634Z,25.8
2017-01-30T10:02:02.260Z,25.8
2017-01-30T10:03:09.822Z,25.8
2017-01-30T10:04:17.904Z,25.8
2017-01-30T10:05:25.996Z,25.8
2017-01-30T10:06:34.089Z,25.7
2017-01-30T10:07:42.902Z,25.8
2017-01-30T10:08:50.270Z,25.7
2017-01-30T10:09:58.359Z,25.8
2017-01-30T10:11:06.452Z,25.8
2017-01-30T10:12:14.546Z,25.7
2017-01-30T10:13:22.633Z,25.7
2017-01-30T10:14:31.041Z,25.7
2017-01-30T10:15:39.068Z,25.8
2017-01-30T10:16:46.913Z,25.8
2017-01-30T10:17:55.265Z,25.8
2017-01-30T10:19:03.104Z,25.7
2017-01-30T10:20:11.195Z,25.7
2017-01-30T10:21:19.282Z,25.7
2017-01-30T10:22:27.383Z,25.7
2017-01-30T10:23:35.471Z,25.7
2017-01-30T10:24:43.561Z,25.7
2017-01-30T10:25:51.647Z,25.7
2017-01-30T10:26:59.744Z,25.8
2017-01-30T10:28:08.107Z,25.7
2017-01-30T10:29:15.929Z,25.7
2017-01-30T10:30:24.021Z,25.8
2017-01-30T10:31:32.111Z,25.8
2017-01-30T10:32:40.201Z,25.9
2017-01-30T10:33:48.324Z,25.7
2017-01-30T10:34:56.717Z,25.7
2017-01-30T10:36:04.476Z,25.7
2017-01-30T10:37:12.591Z,25.7
2017-01-30T10:38:20.654Z,25.7
2017-01-30T10:39:28.751Z,25.7
2017-01-30T10:40:36.838Z,25.7
2017-01-30T10:41:44.942Z,25.7
2017-01-30T10:42:53.034Z,25.7
2017-01-30T10:44:01.123Z,25.7
2017-01-30T10:45:09.308Z,25.7
2017-01-30T10:46:17.310Z,25.7
2017-01-30T10:47:25.404Z,25.7
2017-01-30T10:48:33.495Z,25.7
2017-01-30T10:49:41.586Z,25.7
2017-01-30T10:50:49.673Z,25.7
2017-01-30T10:51:57.766Z,25.7
2017-01-30T10:53:05.860Z,25.7
2017-01-30T10:54:13.957Z,25.7
2017-01-30T10:55:22.042Z,25.7
2017-01-30T10:56:30.130Z,25.7
2017-01-30T10:57:38.222Z,25.7
2017-01-30T10:58:46.319Z,25.7
2017-01-30T10:59:54.406Z,25.7
2017-01-30T11:01:02.498Z,25.7
2017-01-30T11:02:10.587Z,25.7
2017-01-30T11:03:18.767Z,25.6
2017-01-30T11:04:26.764Z,25.6
2017-01-30T11:05:34.855Z,25.6
2017-01-30T11:06:42.945Z,25.6
2017-01-30T11:07:51.037Z,25.6
2017-01-30T11:08:59.126Z,25.7
2017-01-30T11:10:07.221Z,25.6
2017-01-30T11:11:15.313Z,25.6
2017-01-30T11:12:23.412Z,25.6
2017-01-30T11:13:31.502Z,25.6
2017-01-30T11:14:39.592Z,25.6
2017-01-30T11:15:47.683Z,25.6
2017-01-30T11:16:56.131Z,25.6
2017-01-30T11:18:04.160Z,25.6
2017-01-30T11:19:12.654Z,25.6
2017-01-30T11:20:20.052Z,25.6
2017-01-30T11:21:28.145Z,25.6
2017-01-30T11:22:36.240Z,25.6
2017-01-30T11:23:44.329Z,25.6
2017-01-30T11:24:52.672Z,25.6
2017-01-30T11:26:01.455Z,25.6
2017-01-30T11:27:08.602Z,25.6
2017-01-30T11:28:16.689Z,25.6
2017-01-30T11:29:24.788Z,25.6
2017-01-30T11:30:32.880Z,25.6
2017-01-30T11:31:40.965Z,25.6
2017-01-30T11:32:49.055Z,25.5
2017-01-30T11:33:57.155Z,25.6
2017-01-30T11:35:05.246Z,25.6
2017-01-30T11:36:13.333Z,25.6
2017-01-30T11:37:21.425Z,25.6
2017-01-30T11:38:29.523Z,25.6
2017-01-30T11:39:37.606Z,25.6
2017-01-30T11:40:45.701Z,25.6
2017-01-30T11:41:53.792Z,25.6
2017-01-30T11:43:01.884Z,25.6
2017-01-30T11:44:09.967Z,25.6
2017-01-30T11:45:18.061Z,25.6
2017-01-30T11:46:26.152Z,25.6
2017-01-30T11:47:34.243Z,25.6
2017-01-30T11:48:42.326Z,25.6
2017-01-30T11:49:50.427Z,25.6
2017-01-30T11:50:58.522Z,25.7
2017-01-30T11:52:06.606Z,25.6
2017-01-30T11:53:14.702Z,25.6
2017-01-30T11:54:22.819Z,25.6
2017-01-30T11:55:30.886Z,25.6
2017-01-30T11:56:38.983Z,25.6
2017-01-30T11:57:47.074Z,25.6
2017-01-30T11:58:55.167Z,25.6
2017-01-30T12:00:03.258Z,25.6
2017-01-30T12:01:11.350Z,25.5
2017-01-30T12:02:19.443Z,25.6
2017-01-30T12:03:27.533Z,25.6
2017-01-30T12:04:35.827Z,25.6
2017-01-30T12:05:43.718Z,25.6
2017-01-30T12:06:51.805Z,25.6
2017-01-30T12:07:59.900Z,25.6
2017-01-30T12:09:07.994Z,25.6
2017-01-30T12:10:16.090Z,25.6
2017-01-30T12:11:24.176Z,25.5
2017-01-30T12:12:32.277Z,25.6
2017-01-30T12:13:40.363Z,25.6
2017-01-30T12:14:48.457Z,25.6
2017-01-30T12:15:56.544Z,25.6
2017-01-30T12:17:04.636Z,25.6
2017-01-30T12:18:12.725Z,25.6
2017-01-30T12:19:21.238Z,25.6
2017-01-30T12:20:28.990Z,25.6
2017-01-30T12:21:37.043Z,25.6
2017-01-30T12:22:45.703Z,25.6
2017-01-30T12:23:53.525Z,25.6
2017-01-30T12:25:01.366Z,25.6
2017-01-30T12:26:09.435Z,25.6
2017-01-30T12:27:17.719Z,25.6
2017-01-30T12:28:25.994Z,25.6
2017-01-30T12:29:33.669Z,25.6
2017-01-30T12:30:41.807Z,25.6
2017-01-30T12:31:49.854Z,25.6
2017-01-30T12:32:58.368Z,25.5
2017-01-30T12:34:06.666Z,25.6
2017-01-30T12:35:14.236Z,25.6
2017-01-30T12:36:22.377Z,25.6
2017-01-30T12:37:30.619Z,25.5
2017-01-30T12:38:38.689Z,25.5
2017-01-30T12:39:46.476Z,25.5
2017-01-30T12:40:54.903Z,25.5
2017-01-30T12:42:03.276Z,25.6
2017-01-30T12:43:11.078Z,25.5
2017-01-30T12:44:19.225Z,25.6
2017-01-30T12:45:27.193Z,25.6
2017-01-30T12:46:35.075Z,25.6
2017-01-30T12:47:43.165Z,25.6
2017-01-30T12:48:51.672Z,25.6
2017-01-30T12:49:59.363Z,25.5
2017-01-30T12:51:07.976Z,25.5
2017-01-30T12:52:16.137Z,25.5
2017-01-30T12:53:23.833Z,25.5
2017-01-30T12:54:31.890Z,25.6
2017-01-30T12:55:40.391Z,25.5
2017-01-30T12:56:47.917Z,25.6
2017-01-30T12:57:56.572Z,25.6
2017-01-30T12:59:04.133Z,25.5
2017-01-30T13:00:12.500Z,25.5
2017-01-30T13:01:20.257Z,25.5
2017-01-30T13:02:28.663Z,25.5
2017-01-30T13:03:36.590Z,25.5
2017-01-30T13:04:44.512Z,25.5
2017-01-30T13:05:53.999Z,25.5
2017-01-30T13:07:01.032Z,25.5
2017-01-30T13:08:08.883Z,25.5
2017-01-30T13:09:16.990Z,25.5
2017-01-30T13:10:25.926Z,25.4
2017-01-30T13:11:33.299Z,25.4
2017-01-30T13:12:41.393Z,25.4
2017-01-30T13:13:49.267Z,25.4
2017-01-30T13:14:57.434Z,25.4
2017-01-30T13:16:05.669Z,25.5
2017-01-30T13:17:13.940Z,25.4
2017-01-30T13:18:22.188Z,25.5
2017-01-30T13:19:30.100Z,25.5
2017-01-30T13:20:37.885Z,25.5
2017-01-30T13:21:46.158Z,25.4
2017-01-30T13:22:54.080Z,25.5
2017-01-30T13:24:02.193Z,25.5
2017-01-30T13:25:10.703Z,25.4
2017-01-30T13:26:18.356Z,25.5
2017-01-30T13:27:26.549Z,25.4
2017-01-30T13:28:34.689Z,25.5
2017-01-30T13:29:42.738Z,25.4
2017-01-30T13:30:50.829Z,25.4
2017-01-30T13:31:58.804Z,25.4
2017-01-30T13:33:06.925Z,25.4
2017-01-30T13:34:15.036Z,25.4
2017-01-30T13:35:23.737Z,25.4
2017-01-30T19:46:28.233Z,25.0
2017-01-30T19:47:36.332Z,25.0
2017-01-30T19:48:44.419Z,25.0
2017-01-30T19:49:52.512Z,25.1
2017-01-30T19:51:01.191Z,25.0
2017-01-30T19:52:08.699Z,25.1
2017-01-30T19:53:16.785Z,25.0
2017-01-30T19:54:24.873Z,25.0
2017-01-30T19:55:33.320Z,25.0
2017-01-30T19:56:41.050Z,25.0
2017-01-30T19:57:49.142Z,25.0
2017-01-30T19:58:57.230Z,25.1
2017-01-30T20:00:05.319Z,25.0
2017-01-30T20:01:13.527Z,25.1
2017-01-30T20:02:21.507Z,25.0
2017-01-30T20:03:29.608Z,25.1
2017-01-30T20:04:37.700Z,25.0
2017-01-30T20:05:45.796Z,25.0
2017-01-30T20:06:53.884Z,25.0
2017-01-30T20:08:01.976Z,25.0
2017-01-30T20:09:10.070Z,24.9
2017-01-30T20:10:18.162Z,25.0
2017-01-30T20:11:26.251Z,24.9
2017-01-30T20:12:34.338Z,24.9
2017-01-30T20:13:42.434Z,24.9
2017-01-30T20:14:50.847Z,25.0
2017-01-30T20:15:58.612Z,25.0
2017-01-30T20:17:06.706Z,25.0
2017-01-30T20:18:14.815Z,25.0
2017-01-30T20:19:22.888Z,24.9
2017-01-30T20:20:30.976Z,25.0
2017-01-30T20:21:39.069Z,25.0
2017-01-30T20:22:47.157Z,25.0
2017-01-30T20:23:55.244Z,25.0
2017-01-30T20:25:03.339Z,25.0
2017-01-30T20:26:11.427Z,25.0
2017-01-30T20:27:19.526Z,25.0
2017-01-30T20:28:27.614Z,25.0
2017-01-30T20:29:35.714Z,25.0
2017-01-30T20:30:43.798Z,24.9
2017-01-30T20:31:51.882Z,24.9
2017-01-30T20:32:59.974Z,24.9
2017-01-30T20:34:08.063Z,24.9
2017-01-30T20:35:16.158Z,25.0
2017-01-30T20:36:24.254Z,24.9
2017-01-30T20:37:32.337Z,24.8
2017-01-30T20:38:40.428Z,24.9
2017-01-30T20:39:48.516Z,24.9
2017-01-30T20:40:56.611Z,24.8
2017-01-30T20:42:04.696Z,24.9
2017-01-30T20:43:12.781Z,24.8
2017-01-30T20:44:20.870Z,24.9
2017-01-30T20:45:28.967Z,24.9
2017-01-30T20:46:37.053Z,24.8
2017-01-30T20:47:45.142Z,24.8
2017-01-30T20:48:53.236Z,24.8
2017-01-30T20:50:01.332Z,24.8
2017-01-30T20:51:09.425Z,24.8
2017-01-30T20:52:17.509Z,24.9
2017-01-30T20:53:25.601Z,24.8
2017-01-30T20:54:33.691Z,24.8
2017-01-30T20:55:41.778Z,24.8
2017-01-30T20:56:49.870Z,24.9
2017-01-30T20:57:57.966Z,24.8
2017-01-30T20:59:06.047Z,24.8
2017-01-30T21:00:14.235Z,24.8
2017-01-30T21:01:22.233Z,24.7
2017-01-30T21:02:30.329Z,24.7
2017-01-30T21:03:38.418Z,24.8
2017-01-30T21:04:46.508Z,24.8
2017-01-30T21:05:54.601Z,24.7
2017-01-30T21:07:02.687Z,24.7
2017-01-30T21:08:10.777Z,24.7
2017-01-30T21:09:18.869Z,24.7
2017-01-30T21:10:26.964Z,24.7
2017-01-30T21:11:35.053Z,24.6
2017-01-30T21:12:43.146Z,24.6
2017-01-30T21:13:51.238Z,24.7
2017-01-30T21:14:59.329Z,24.6
2017-01-30T21:16:07.412Z,24.6